TGPY Airport Information

Runway Information
Runway 10 Length 9003 ft width 148 ft
Elevation 21 ft Threshold 0 ft Heading 90
Runway 28 Length 9003 ft Width 148 ft
Elevation 41 ft Threshold 0 ft Heading 270
Airport Frequencies
Type APP Name APP Frequency 119.4 MHZ
Type GND Name GND Frequency 121.9 MHZ
Type TWR Name TWR Frequency 118.9 MHZ
Airport Navaids
Type VOR-DME Name Point Salines Frequency 117100 KHZ
Type NDB Name Point Salines Frequency 362 KHZ
Airport Weather Information & NOTAM
ADDS - METARS form results

(0757 UTC 22 January 2019)
Data provider http://aviationweather.gov/metar/data/
 
Forecast for: TGPY (POINT SALINES , GD)
Text: TGPY 212200Z 2200/2224 08012KT 9999 SCT018
Forecast period: 0000 UTC 22 January 2019 to 0000 UTC 23 January 2019
Forecast type: FROM: standard forecast or significant change
Winds: from the E (80 degrees) at 14 MPH (12 knots; 6.2 m/s)
Visibility: 6 or more miles 10+ km)
Ceiling: at least 12,000 feet AGL
Clouds: scattered clouds at 1800 feet AGL
Weather: no significant weather forecast for this period